createdAt,value
2022-09-06T00:01:17.121Z,16.35
2022-09-06T00:03:46.788Z,16.49
2022-09-06T00:06:19.977Z,16.43
2022-09-06T00:08:49.904Z,16.20
2022-09-06T00:11:19.081Z,16.07
2022-09-06T00:13:48.101Z,15.99
2022-09-06T00:16:26.325Z,15.88
2022-09-06T00:18:55.948Z,15.63
2022-09-06T00:21:30.115Z,15.68
2022-09-06T00:23:58.894Z,15.54
2022-09-06T00:26:27.502Z,15.63
2022-09-06T00:28:55.200Z,15.71
2022-09-06T00:31:26.863Z,15.56
2022-09-06T00:33:55.815Z,15.43
2022-09-06T00:36:24.214Z,15.37
2022-09-06T00:38:51.969Z,15.38
2022-09-06T00:41:20.926Z,15.42
2022-09-06T00:43:48.757Z,15.31
2022-09-06T00:46:26.639Z,15.26
2022-09-06T00:49:33.239Z,15.24
2022-09-06T00:52:20.643Z,15.14
2022-09-06T00:54:51.191Z,15.17
2022-09-06T00:57:20.403Z,15.32
2022-09-06T00:59:48.968Z,15.26
2022-09-06T01:02:16.838Z,15.07
2022-09-06T01:04:48.326Z,15.11
2022-09-06T01:08:08.466Z,15.03
2022-09-06T01:11:05.222Z,15.20
2022-09-06T01:14:05.002Z,15.03
2022-09-06T01:17:21.599Z,15.14
2022-09-06T01:20:31.857Z,15.43
2022-09-06T01:23:58.314Z,15.29
2022-09-06T01:27:29.093Z,14.91
2022-09-06T01:30:09.620Z,14.62
2022-09-06T01:32:56.996Z,14.69
2022-09-06T01:36:14.143Z,14.70
2022-09-06T01:38:42.022Z,14.53
2022-09-06T01:41:11.464Z,14.62
2022-09-06T01:43:47.712Z,14.65
2022-09-06T01:46:42.190Z,14.68
2022-09-06T01:49:37.683Z,14.69
2022-09-06T01:52:34.773Z,14.63
2022-09-06T01:55:28.346Z,14.64
2022-09-06T01:58:39.666Z,14.89
2022-09-06T02:01:46.643Z,15.05
2022-09-06T02:04:56.234Z,14.69
2022-09-06T02:07:30.207Z,14.61
2022-09-06T02:10:32.351Z,14.50
2022-09-06T02:13:03.064Z,14.54
2022-09-06T02:15:41.665Z,14.56
2022-09-06T02:18:25.028Z,14.81
2022-09-06T02:20:58.760Z,14.85
2022-09-06T02:23:34.306Z,14.61
2022-09-06T02:26:28.516Z,14.70
2022-09-06T02:28:58.281Z,14.90
2022-09-06T02:31:35.219Z,14.71
2022-09-06T02:34:03.753Z,14.53
2022-09-06T02:36:35.381Z,14.25
2022-09-06T02:39:05.414Z,14.70
2022-09-06T02:41:34.982Z,14.82
2022-09-06T02:44:04.011Z,14.50
2022-09-06T02:46:31.792Z,14.47
2022-09-06T02:49:00.498Z,14.63
2022-09-06T02:51:29.111Z,14.39
2022-09-06T02:53:57.810Z,14.35
2022-09-06T02:56:26.425Z,14.38
2022-09-06T02:58:55.722Z,14.31
2022-09-06T03:01:24.406Z,14.30
2022-09-06T03:03:53.127Z,14.26
2022-09-06T03:06:21.955Z,14.20
2022-09-06T03:08:51.604Z,14.20
2022-09-06T03:11:20.261Z,14.25
2022-09-06T03:13:51.168Z,14.23
2022-09-06T03:16:20.976Z,14.43
2022-09-06T03:18:50.010Z,14.68
2022-09-06T03:21:18.652Z,14.77
2022-09-06T03:23:47.183Z,14.47
2022-09-06T03:26:15.814Z,14.49
2022-09-06T03:28:44.413Z,14.50
2022-09-06T03:31:13.370Z,14.64
2022-09-06T03:33:41.963Z,14.98
2022-09-06T03:36:10.713Z,14.61
2022-09-06T03:38:39.288Z,14.54
2022-09-06T03:41:07.890Z,14.68
2022-09-06T03:43:36.764Z,14.81
2022-09-06T03:46:05.650Z,14.80
2022-09-06T03:48:34.327Z,14.78
2022-09-06T03:51:02.990Z,14.95
2022-09-06T03:53:31.684Z,15.11
2022-09-06T03:56:00.470Z,15.12
2022-09-06T03:58:33.788Z,15.01
2022-09-06T04:01:12.205Z,14.86
2022-09-06T04:03:41.661Z,15.02
2022-09-06T04:06:10.937Z,15.02
2022-09-06T04:08:40.368Z,15.03
2022-09-06T04:11:09.006Z,15.15
2022-09-06T04:13:38.261Z,15.43
2022-09-06T04:16:07.817Z,15.56
2022-09-06T04:18:36.700Z,15.63
2022-09-06T04:21:05.023Z,15.44
2022-09-06T04:23:35.367Z,15.51
2022-09-06T04:26:07.100Z,15.35
2022-09-06T04:28:34.941Z,15.33
2022-09-06T04:31:05.356Z,15.44
2022-09-06T04:33:37.279Z,15.57
2022-09-06T04:36:10.205Z,15.62
2022-09-06T04:38:45.057Z,15.47
2022-09-06T04:41:19.020Z,15.45
2022-09-06T04:43:47.934Z,15.69
2022-09-06T04:46:27.502Z,15.60
2022-09-06T04:48:57.801Z,15.89
2022-09-06T04:51:26.754Z,15.93
2022-09-06T04:53:55.315Z,15.99
2022-09-06T04:56:26.505Z,15.98
2022-09-06T04:58:56.401Z,16.13
2022-09-06T05:01:26.583Z,16.07
2022-09-06T05:03:56.900Z,16.04
2022-09-06T05:06:26.028Z,15.80
2022-09-06T05:08:54.731Z,15.85
2022-09-06T05:11:23.549Z,15.91
2022-09-06T05:13:52.206Z,16.02
2022-09-06T05:16:20.820Z,16.31
2022-09-06T05:18:49.471Z,16.30
2022-09-06T05:21:18.195Z,16.30
2022-09-06T05:23:46.926Z,16.29
2022-09-06T05:26:15.601Z,16.44
2022-09-06T05:28:43.427Z,16.37
2022-09-06T05:31:30.775Z,16.44
2022-09-06T05:33:59.970Z,16.47
2022-09-06T05:36:30.766Z,16.50
2022-09-06T05:39:00.050Z,16.67
2022-09-06T05:41:28.870Z,16.55
2022-09-06T05:43:57.489Z,16.77
2022-09-06T05:46:26.683Z,17.23
2022-09-06T05:49:07.916Z,17.30
2022-09-06T05:51:36.546Z,17.32
2022-09-06T05:54:05.448Z,17.77
2022-09-06T05:56:34.151Z,18.23
2022-09-06T05:59:01.936Z,18.53
2022-09-06T06:01:31.644Z,19.73
2022-09-06T06:04:03.681Z,21.12
2022-09-06T06:06:35.058Z,21.23
2022-09-06T06:09:03.733Z,20.62
2022-09-06T06:11:32.835Z,19.00
2022-09-06T06:14:00.825Z,18.66
2022-09-06T06:16:29.812Z,18.71
2022-09-06T06:18:58.650Z,19.15
2022-09-06T06:21:31.273Z,20.46
2022-09-06T06:24:05.255Z,19.59
2022-09-06T06:26:37.057Z,19.55
2022-09-06T06:29:09.632Z,19.34
2022-09-06T06:31:39.651Z,20.27
2022-09-06T06:34:08.757Z,25.65
2022-09-06T06:36:38.427Z,26.58
2022-09-06T06:39:08.832Z,28.38
2022-09-06T06:41:37.866Z,28.39
2022-09-06T06:44:07.293Z,25.44
2022-09-06T06:46:38.592Z,21.86
2022-09-06T06:49:07.261Z,20.78
2022-09-06T06:51:37.417Z,20.92
2022-09-06T06:54:06.735Z,21.25
2022-09-06T06:56:40.991Z,21.11
2022-09-06T06:59:09.584Z,20.83
2022-09-06T07:01:38.797Z,21.56
2022-09-06T07:04:10.022Z,21.67
2022-09-06T07:12:33.331Z,21.72
2022-09-06T07:15:01.924Z,21.94
2022-09-06T07:17:30.936Z,21.74
2022-09-06T07:20:15.282Z,22.37
2022-09-06T07:22:44.310Z,24.50
2022-09-06T07:25:21.014Z,23.05
2022-09-06T07:27:57.145Z,22.28
2022-09-06T07:30:25.824Z,22.20
2022-09-06T07:32:54.504Z,22.37
2022-09-06T07:35:23.079Z,22.48
2022-09-06T07:38:01.331Z,22.44
2022-09-06T07:40:31.681Z,22.39
2022-09-06T07:43:00.885Z,23.09
2022-09-06T07:45:29.331Z,23.00
2022-09-06T07:47:59.845Z,23.50
2022-09-06T07:50:48.011Z,23.33
2022-09-06T07:53:29.250Z,23.67
2022-09-06T07:56:01.352Z,23.50
2022-09-06T07:58:32.464Z,23.73
2022-09-06T08:01:30.445Z,23.84
2022-09-06T08:04:02.543Z,23.56
2022-09-06T08:09:24.227Z,24.34
2022-09-06T08:11:52.965Z,24.45
2022-09-06T08:14:21.508Z,24.48
2022-09-06T08:16:50.613Z,24.90
2022-09-06T08:19:19.075Z,24.63
2022-09-06T08:21:47.538Z,25.16
2022-09-06T08:24:16.285Z,25.09
2022-09-06T08:26:44.879Z,24.86
2022-09-06T08:29:14.498Z,25.32
2022-09-06T08:31:45.325Z,25.29
2022-09-06T08:34:15.335Z,25.50
2022-09-06T08:36:45.585Z,25.65
2022-09-06T08:39:14.100Z,25.32
2022-09-06T08:42:05.748Z,25.46
2022-09-06T08:44:55.104Z,25.32
2022-09-06T08:47:24.954Z,25.85
2022-09-06T08:50:01.885Z,26.32
2022-09-06T08:53:16.092Z,25.82
2022-09-06T08:56:28.828Z,25.96
2022-09-06T08:59:07.774Z,26.13
2022-09-06T09:02:19.255Z,26.50
2022-09-06T09:05:01.853Z,26.34
2022-09-06T09:07:46.159Z,26.41
2022-09-06T09:10:35.040Z,26.81
2022-09-06T09:13:09.727Z,26.48
2022-09-06T09:15:40.447Z,26.04
2022-09-06T09:18:09.489Z,26.53
2022-09-06T09:20:39.734Z,25.71
2022-09-06T09:23:08.160Z,25.79
2022-09-06T09:25:39.429Z,26.25
2022-09-06T09:28:18.484Z,26.30
2022-09-06T09:30:56.603Z,26.63
2022-09-06T09:33:30.185Z,27.88
2022-09-06T09:36:14.104Z,27.53
2022-09-06T09:38:51.875Z,27.41
2022-09-06T09:41:38.662Z,26.73
2022-09-06T09:44:17.803Z,26.16
2022-09-06T09:46:46.420Z,26.77
2022-09-06T09:49:27.725Z,27.92
2022-09-06T09:52:15.154Z,27.71
2022-09-06T09:54:47.791Z,27.79
2022-09-06T09:57:20.030Z,28.25
2022-09-06T10:00:06.515Z,26.24
2022-09-06T10:02:39.328Z,25.89
2022-09-06T10:05:13.205Z,26.71
2022-09-06T10:07:55.161Z,27.34
2022-09-06T10:10:36.269Z,27.78
2022-09-06T10:13:19.561Z,27.14
2022-09-06T10:15:51.096Z,26.90
2022-09-06T10:18:44.613Z,27.74
2022-09-06T10:21:22.446Z,27.87
2022-09-06T10:24:31.722Z,27.70
2022-09-06T10:27:02.628Z,28.24
2022-09-06T10:30:07.238Z,27.51
2022-09-06T10:32:49.616Z,28.30
2022-09-06T10:35:37.588Z,28.12
2022-09-06T10:38:51.454Z,27.74
2022-09-06T10:41:57.252Z,28.08
2022-09-06T10:45:20.570Z,28.32
2022-09-06T10:48:23.889Z,28.43
2022-09-06T10:51:01.874Z,28.18
2022-09-06T10:54:09.707Z,28.83
2022-09-06T10:56:55.479Z,27.86
2022-09-06T10:59:42.317Z,28.66
2022-09-06T11:02:48.706Z,29.24
2022-09-06T11:05:41.271Z,28.43
2022-09-06T11:12:14.867Z,28.96
2022-09-06T11:14:43.516Z,29.10
2022-09-06T11:17:48.092Z,29.82
2022-09-06T11:20:47.116Z,28.78
2022-09-06T11:23:51.088Z,28.61
2022-09-06T11:26:35.315Z,28.76
2022-09-06T11:29:27.834Z,28.74
2022-09-06T11:32:20.506Z,28.82
2022-09-06T11:34:57.851Z,28.16
2022-09-06T11:37:36.374Z,28.30
2022-09-06T11:43:49.531Z,27.96
2022-09-06T11:46:36.225Z,28.08
2022-09-06T11:49:09.384Z,27.48
2022-09-06T11:51:45.504Z,27.28
2022-09-06T11:54:24.512Z,27.60
2022-09-06T11:57:12.659Z,27.38
2022-09-06T11:59:47.758Z,27.55
2022-09-06T12:02:35.845Z,27.50
2022-09-06T12:05:07.476Z,28.49
2022-09-06T12:07:39.319Z,28.07
2022-09-06T12:11:04.980Z,27.63
2022-09-06T12:13:46.250Z,27.23
2022-09-06T12:16:17.708Z,27.12
2022-09-06T12:18:49.172Z,26.97
2022-09-06T12:21:52.516Z,27.36
2022-09-06T12:24:47.446Z,27.09
2022-09-06T12:27:22.812Z,27.15
2022-09-06T12:30:11.544Z,27.17
2022-09-06T12:32:52.260Z,26.87
2022-09-06T12:38:25.974Z,27.27
2022-09-06T12:40:59.200Z,27.01
2022-09-06T12:43:28.451Z,27.13
2022-09-06T12:45:56.992Z,27.51
2022-09-06T12:48:41.393Z,27.46
2022-09-06T12:51:20.367Z,27.43
2022-09-06T12:54:02.022Z,27.19
2022-09-06T12:56:34.502Z,27.20
2022-09-06T12:59:32.589Z,27.22
2022-09-06T13:02:20.928Z,27.60
2022-09-06T13:05:06.857Z,27.41
2022-09-06T13:07:48.148Z,28.28
2022-09-06T13:10:27.348Z,27.59
2022-09-06T13:12:58.913Z,27.70
2022-09-06T13:15:31.393Z,27.53
2022-09-06T13:18:27.249Z,27.21
2022-09-06T13:21:14.282Z,27.47
2022-09-06T13:23:53.658Z,27.39
2022-09-06T13:26:40.230Z,27.44
2022-09-06T13:29:17.678Z,27.60
2022-09-06T13:31:52.639Z,26.74
2022-09-06T13:34:34.349Z,26.87
2022-09-06T13:37:09.398Z,26.96
2022-09-06T13:39:46.527Z,26.82
2022-09-06T13:42:36.783Z,26.61
2022-09-06T13:45:29.439Z,26.49
2022-09-06T13:48:13.133Z,26.38
2022-09-06T13:50:46.275Z,26.45
2022-09-06T13:53:20.797Z,26.23
2022-09-06T13:55:49.256Z,26.25
2022-09-06T13:58:17.802Z,26.14
2022-09-06T14:00:47.297Z,26.14
2022-09-06T14:03:32.985Z,26.24
2022-09-06T14:06:01.971Z,26.13
2022-09-06T14:08:49.697Z,26.01
2022-09-06T14:11:20.757Z,25.92
2022-09-06T14:13:49.426Z,26.00
2022-09-06T14:16:18.063Z,26.38
2022-09-06T14:18:46.810Z,26.44
2022-09-06T14:21:15.271Z,26.62
2022-09-06T14:23:44.239Z,26.20
2022-09-06T14:26:13.566Z,26.13
2022-09-06T14:28:42.010Z,26.11
2022-09-06T14:31:19.372Z,26.00
2022-09-06T14:33:48.549Z,26.01
2022-09-06T14:36:20.932Z,25.87
2022-09-06T14:38:51.109Z,25.73
2022-09-06T14:41:21.223Z,25.74
2022-09-06T14:43:55.088Z,25.68
2022-09-06T14:46:27.323Z,25.58
2022-09-06T14:49:07.914Z,25.55
2022-09-06T14:51:38.730Z,25.77
2022-09-06T14:54:12.903Z,25.70
2022-09-06T14:56:44.008Z,25.65
2022-09-06T14:59:13.401Z,25.62
2022-09-06T15:01:42.316Z,25.56
2022-09-06T15:04:12.223Z,25.40
2022-09-06T15:06:45.064Z,25.56
2022-09-06T15:09:16.257Z,25.52
2022-09-06T15:11:50.777Z,25.53
2022-09-06T15:14:27.193Z,25.49
2022-09-06T15:16:59.605Z,25.43
2022-09-06T15:19:30.477Z,25.39
2022-09-06T15:21:59.157Z,25.39
2022-09-06T15:24:28.363Z,25.26
2022-09-06T15:26:57.335Z,25.17
2022-09-06T15:29:27.446Z,25.35
2022-09-06T15:31:55.971Z,25.21
2022-09-06T15:34:27.095Z,25.34
2022-09-06T15:36:56.797Z,25.34
2022-09-06T15:39:25.346Z,25.39
2022-09-06T15:41:53.944Z,25.54
2022-09-06T15:44:22.475Z,25.40
2022-09-06T15:47:00.435Z,25.16
2022-09-06T15:49:33.209Z,25.27
2022-09-06T15:52:03.725Z,25.13
2022-09-06T15:54:50.470Z,25.29
2022-09-06T15:57:19.241Z,25.21
2022-09-06T15:59:47.998Z,25.23
2022-09-06T16:02:16.842Z,25.19
2022-09-06T16:04:47.023Z,25.10
2022-09-06T16:07:15.520Z,24.98
2022-09-06T16:09:44.142Z,24.96
2022-09-06T16:12:12.682Z,24.94
2022-09-06T16:14:41.120Z,24.75
2022-09-06T16:17:11.964Z,24.76
2022-09-06T16:19:40.615Z,24.57
2022-09-06T16:22:09.087Z,24.72
2022-09-06T16:24:37.861Z,24.69
2022-09-06T16:27:06.340Z,24.53
2022-09-06T16:29:35.493Z,24.56
2022-09-06T16:32:04.363Z,24.37
2022-09-06T16:34:32.880Z,24.05
2022-09-06T16:37:07.919Z,23.28
2022-09-06T16:39:37.858Z,22.76
2022-09-06T16:42:07.339Z,22.31
2022-09-06T16:44:35.986Z,21.98
2022-09-06T16:47:05.271Z,21.78
2022-09-06T16:49:33.952Z,21.63
2022-09-06T16:52:02.929Z,21.41
2022-09-06T16:54:31.736Z,21.50
2022-09-06T16:57:02.751Z,21.55
2022-09-06T16:59:31.380Z,21.45
2022-09-06T17:02:00.184Z,21.64
2022-09-06T17:04:28.978Z,22.11
2022-09-06T17:06:58.039Z,22.12
2022-09-06T17:09:26.754Z,21.57
2022-09-06T17:11:55.341Z,21.31
2022-09-06T17:14:24.936Z,20.99
2022-09-06T17:17:07.250Z,20.48
2022-09-06T17:19:39.568Z,20.78
2022-09-06T17:22:12.783Z,20.00
2022-09-06T17:24:42.158Z,20.23
2022-09-06T17:27:11.463Z,19.94
2022-09-06T17:29:40.290Z,19.74
2022-09-06T17:32:10.504Z,19.57
2022-09-06T17:34:42.490Z,19.56
2022-09-06T17:37:11.497Z,19.38
2022-09-06T17:39:40.549Z,19.61
2022-09-06T17:42:09.715Z,19.33
2022-09-06T17:44:38.479Z,19.47
2022-09-06T17:47:15.057Z,19.40
2022-09-06T17:49:44.257Z,19.66
2022-09-06T17:52:13.856Z,19.74
2022-09-06T17:54:44.100Z,19.56
2022-09-06T17:57:12.725Z,19.37
2022-09-06T17:59:41.411Z,19.62
2022-09-06T18:02:10.598Z,19.85
2022-09-06T18:04:39.358Z,19.63
2022-09-06T18:07:08.089Z,19.46
2022-09-06T18:09:37.402Z,19.43
2022-09-06T18:12:07.078Z,19.27
2022-09-06T18:14:36.964Z,19.39
2022-09-06T18:17:08.670Z,19.48
2022-09-06T18:19:38.373Z,19.41
2022-09-06T18:22:07.210Z,19.52
2022-09-06T18:24:35.871Z,19.59
2022-09-06T18:27:05.799Z,19.70
2022-09-06T18:29:34.765Z,19.60
2022-09-06T18:32:04.596Z,19.52
2022-09-06T18:34:33.386Z,19.42
2022-09-06T18:37:02.433Z,19.35
2022-09-06T18:39:31.100Z,19.38
2022-09-06T18:42:00.219Z,19.56
2022-09-06T18:44:34.701Z,19.42
2022-09-06T18:47:08.960Z,19.29
2022-09-06T18:49:43.222Z,19.25
2022-09-06T18:52:12.828Z,19.27
2022-09-06T18:54:43.760Z,19.28
2022-09-06T18:57:13.171Z,19.39
2022-09-06T18:59:41.918Z,19.59
2022-09-06T19:02:10.851Z,19.72
2022-09-06T19:04:39.900Z,19.72
2022-09-06T19:07:08.613Z,19.53
2022-09-06T19:09:37.463Z,19.46
2022-09-06T19:12:06.314Z,19.34
2022-09-06T19:14:35.009Z,19.29
2022-09-06T19:17:04.056Z,19.24
2022-09-06T19:19:32.818Z,19.45
2022-09-06T19:22:02.057Z,19.16
2022-09-06T19:24:30.869Z,19.39
2022-09-06T19:26:59.592Z,19.30
2022-09-06T19:29:28.738Z,19.19
2022-09-06T19:31:57.698Z,18.93
2022-09-06T19:34:26.805Z,19.15
2022-09-06T19:36:57.345Z,19.12
2022-09-06T19:39:33.640Z,18.96
2022-09-06T19:42:06.042Z,18.98
2022-09-06T19:44:34.860Z,18.86
2022-09-06T19:47:03.807Z,18.99
2022-09-06T19:49:32.541Z,19.02
2022-09-06T19:52:01.752Z,18.99
2022-09-06T19:54:30.535Z,19.02
2022-09-06T19:56:59.245Z,18.89
2022-09-06T19:59:28.857Z,19.02
2022-09-06T20:01:57.705Z,18.79
2022-09-06T20:04:28.330Z,18.74
2022-09-06T20:06:57.734Z,18.60
2022-09-06T20:09:26.522Z,18.48
2022-09-06T20:11:55.260Z,18.50
2022-09-06T20:14:25.125Z,18.43
2022-09-06T20:16:53.811Z,18.64
2022-09-06T20:19:22.509Z,18.35
2022-09-06T20:21:51.195Z,18.25
2022-09-06T20:24:20.049Z,18.29
2022-09-06T20:26:53.122Z,18.10
2022-09-06T20:29:21.784Z,18.02
2022-09-06T20:31:50.485Z,18.00
2022-09-06T20:34:19.488Z,18.15
2022-09-06T20:36:48.102Z,18.06
2022-09-06T20:39:16.943Z,17.90
2022-09-06T20:41:46.741Z,17.90
2022-09-06T20:44:15.562Z,18.00
2022-09-06T20:46:44.311Z,17.96
2022-09-06T20:49:15.174Z,17.90
2022-09-06T20:51:43.840Z,17.86
2022-09-06T20:54:14.066Z,17.84
2022-09-06T20:56:43.244Z,17.81
2022-09-06T20:59:14.254Z,17.78
2022-09-06T21:01:46.395Z,17.82
2022-09-06T21:04:17.874Z,17.68
2022-09-06T21:06:46.817Z,17.70
2022-09-06T21:09:16.389Z,17.69
2022-09-06T21:11:46.778Z,17.71
2022-09-06T21:14:16.307Z,17.73
2022-09-06T21:16:45.476Z,17.64
2022-09-06T21:19:14.440Z,17.65
2022-09-06T21:21:47.911Z,17.52
2022-09-06T21:24:16.614Z,17.51
2022-09-06T21:26:45.504Z,17.46
2022-09-06T21:29:14.312Z,17.44
2022-09-06T21:31:45.362Z,17.42
2022-09-06T21:34:16.890Z,17.48
2022-09-06T21:36:46.345Z,17.61
2022-09-06T21:39:15.481Z,17.62
2022-09-06T21:41:44.790Z,17.98
2022-09-06T21:44:14.109Z,17.89
2022-09-06T21:46:43.150Z,17.65
2022-09-06T21:49:14.571Z,17.68
2022-09-06T21:51:44.007Z,17.53
2022-09-06T21:54:15.426Z,17.45
2022-09-06T21:56:44.158Z,17.59
2022-09-06T21:59:13.088Z,17.50
2022-09-06T22:01:44.973Z,17.61
2022-09-06T22:04:14.798Z,17.60
2022-09-06T22:06:43.514Z,17.49
2022-09-06T22:09:14.101Z,17.46
2022-09-06T22:11:45.018Z,17.47
2022-09-06T22:14:15.735Z,17.33
2022-09-06T22:16:45.261Z,17.25
2022-09-06T22:19:14.292Z,17.56
2022-09-06T22:21:42.975Z,17.64
2022-09-06T22:24:13.051Z,17.58
2022-09-06T22:26:42.491Z,17.64
2022-09-06T22:29:16.778Z,17.37
2022-09-06T22:31:46.285Z,17.70
2022-09-06T22:34:15.902Z,17.61
2022-09-06T22:36:44.644Z,17.70
2022-09-06T22:39:13.445Z,17.78
2022-09-06T22:41:42.199Z,17.61
2022-09-06T22:44:10.903Z,17.70
2022-09-06T22:46:39.733Z,17.50
2022-09-06T22:49:09.325Z,17.45
2022-09-06T22:51:38.053Z,17.24
2022-09-06T22:54:07.089Z,17.33
2022-09-06T22:56:36.817Z,17.52
2022-09-06T22:59:05.978Z,17.35
2022-09-06T23:01:39.399Z,17.58
2022-09-06T23:04:10.101Z,17.33
2022-09-06T23:06:38.872Z,17.25
2022-09-06T23:09:07.974Z,17.39
2022-09-06T23:11:37.513Z,17.41
2022-09-06T23:14:06.542Z,17.28
2022-09-06T23:16:36.073Z,17.16
2022-09-06T23:19:04.852Z,17.15
2022-09-06T23:21:34.320Z,17.05
2022-09-06T23:24:03.238Z,17.02
2022-09-06T23:26:33.487Z,16.96
2022-09-06T23:29:03.172Z,17.15
2022-09-06T23:31:32.795Z,17.18
2022-09-06T23:34:03.350Z,17.14
2022-09-06T23:36:33.198Z,16.99
2022-09-06T23:39:03.008Z,16.82
2022-09-06T23:41:32.009Z,16.93
2022-09-06T23:44:01.989Z,16.93
2022-09-06T23:46:31.328Z,16.88
2022-09-06T23:49:00.896Z,16.78
2022-09-06T23:51:29.684Z,16.75
2022-09-06T23:53:59.254Z,17.09
2022-09-06T23:56:27.976Z,17.26
2022-09-06T23:58:56.924Z,17.30
